Language: 


Des rapports , des résumés tant et plus, au choix de chacun....


Données Historiques de Météogheer
Journalier Rapport pour Janvier 20, 2018 Unitée:  Impériale    Métrique   Les deux
Suivant Jour »
Journalier Hebdomadaire Mensuel Annuel Sur mesure
  Max: Min: Moyenne:
Température: 42.3 °F 32.5 °F 38.5 °F
Point de rosée: 42.8 °F 32 °F 38.5 °F
Humidité: 98% 93% 98%
Vent: 8.5mph 0mph 2mph
Rafales: 12.1mph - -
Vent- - SSE
Pression: 29.8 in 29.4 in -
Pluie: 0.28 in    
Historical Graphs
 
 
Données tabulaires pour Janvier 20, 2018
Heure Température Point de rosée Pression Vent Vent Rafales Humidité Pluie Taux (Horaire) Conditions
00:03 33.4 °F 32 °F 29.8 in Calm   4.3 mph 93% 0 in
00:08 33.6 °F 32 °F 29.8 in Calm   4.3 mph 94% 0 in
00:13 33.6 °F 32 °F 29.8 in WSW 1.6 mph 3.6 mph 94% 0 in
00:18 33.8 °F 32 °F 29.8 in Calm   1.6 mph 94% 0 in
00:23 33.8 °F 32 °F 29.8 in West 4.3 mph 4.3 mph 94% 0 in
00:28 34 °F 32 °F 29.8 in Calm   4.7 mph 94% 0 in
00:33 34 °F 32 °F 29.8 in WSW 2.9 mph 4.7 mph 94% 0 in
00:38 34.2 °F 33.8 °F 29.8 in Calm   3.8 mph 94% 0 in
00:43 34.2 °F 33.8 °F 29.8 in Calm   3.8 mph 94% 0 in
00:48 34.3 °F 33.8 °F 29.8 in Calm   2.7 mph 95% 0 in
00:53 34.3 °F 33.8 °F 29.8 in Calm   2.7 mph 95% 0 in
00:58 34.3 °F 33.8 °F 29.8 in Calm   3.1 mph 95% 0 in
01:03 34.2 °F 33.8 °F 29.8 in Calm   3.1 mph 95% 0 in
01:08 34.2 °F 33.8 °F 29.8 in West 2.7 mph 3.1 mph 94% 0 in
01:14 34.2 °F 33.8 °F 29.8 in Calm   4.3 mph 94% 0 in
01:19 34.2 °F 33.8 °F 29.8 in Calm   4.3 mph 94% 0 in
01:24 34.2 °F 33.8 °F 29.8 in SW 1.1 mph 4 mph 94% 0 in
01:29 34.2 °F 33.8 °F 29.8 in WSW 5.4 mph 5.4 mph 95% 0 in
01:34 34.5 °F 33.8 °F 29.8 in Calm   5.4 mph 95% 0 in
01:39 34.9 °F 33.8 °F 29.8 in Calm   4.9 mph 96% 0 in
01:44 34.9 °F 33.8 °F 29.8 in WSW 3.6 mph 5.6 mph 96% 0 in
01:49 35.1 °F 33.8 °F 29.8 in Calm   5.6 mph 96% 0 in
01:54 34.9 °F 33.8 °F 29.8 in Calm   5.4 mph 96% 0 in
01:59 34.9 °F 33.8 °F 29.8 in Calm   1.1 mph 96% 0 in
02:04 34.9 °F 33.8 °F 29.8 in Calm   2.5 mph 96% 0 in
02:09 34.7 °F 33.8 °F 29.8 in WSW 2.7 mph 3.4 mph 95% 0 in
02:14 34.5 °F 33.8 °F 29.8 in Calm   3.4 mph 95% 0 in
02:19 34.3 °F 33.8 °F 29.8 in Calm   1.3 mph 95% 0 in
02:24 34 °F 32 °F 29.8 in Calm     94% 0 in
02:29 34 °F 33.8 °F 29.8 in Calm   2.5 mph 95% 0 in
02:34 33.8 °F 32 °F 29.8 in Calm   2.5 mph 94% 0 in
02:39 33.6 °F 33.8 °F 29.8 in Calm   1.3 mph 95% 0 in
02:44 33.3 °F 32 °F 29.8 in Calm     94% 0 in
02:49 32.9 °F 32 °F 29.8 in Calm   1.6 mph 94% 0 in
02:54 32.7 °F 32 °F 29.8 in Calm   1.6 mph 94% 0 in
02:59 32.7 °F 32 °F 29.8 in Calm   1.6 mph 94% 0 in
03:04 32.5 °F 32 °F 29.8 in Calm   1.6 mph 95% 0 in
03:09 32.5 °F 32 °F 29.8 in Calm     95% 0 in
03:14 32.5 °F 32 °F 29.8 in Calm     95% 0 in
03:20 32.5 °F 32 °F 29.8 in Calm     96% 0 in
03:25 32.7 °F 32 °F 29.8 in Calm     96% 0 in
03:30 32.7 °F 32 °F 29.8 in Calm     97% 0 in
03:35 32.7 °F 32 °F 29.8 in Calm     97% 0 in
03:40 32.9 °F 33.8 °F 29.8 in Calm   3.8 mph 97% 0 in
03:45 33.4 °F 33.8 °F 29.8 in Calm   3.8 mph 98% 0 in
03:50 33.4 °F 33.8 °F 29.8 in SSW 2 mph 2.2 mph 98% 0 in
03:55 33.4 °F 33.8 °F 29.8 in North 3.4 mph 3.4 mph 98% 0 in
04:00 33.6 °F 33.8 °F 29.7 in South 2.7 mph 4.7 mph 98% 0 in
04:05 33.8 °F 33.8 °F 29.7 in Calm   4.7 mph 98% 0 in
04:10 33.8 °F 33.8 °F 29.7 in Calm   4.3 mph 98% 0 in
04:15 34 °F 33.8 °F 29.8 in Calm   1.6 mph 98% 0 in
04:20 34 °F 33.8 °F 29.8 in Calm     98% 0 in
04:25 34.2 °F 33.8 °F 29.8 in Calm     98% 0 in
04:30 34.3 °F 33.8 °F 29.7 in Calm   2.9 mph 98% 0 in
04:35 34.3 °F 33.8 °F 29.7 in Calm   3.1 mph 98% 0 in
04:40 34.3 °F 33.8 °F 29.7 in SSW 2.2 mph 3.1 mph 98% 0 in
04:45 34.5 °F 33.8 °F 29.7 in Calm   3.1 mph 98% 0 in
04:50 34.7 °F 35.6 °F 29.7 in SSW 3.1 mph 3.1 mph 98% 0 in
04:55 34.9 °F 35.6 °F 29.7 in SSW 3.8 mph 4.7 mph 98% 0 in
05:01 35.2 °F 35.6 °F 29.7 in South 3.4 mph 6.5 mph 98% 0 in
05:06 35.6 °F 35.6 °F 29.7 in South 4.9 mph 6.5 mph 98% 0 in
05:11 35.8 °F 35.6 °F 29.7 in SSW 4.3 mph 6.5 mph 98% 0 in
05:16 36 °F 35.6 °F 29.7 in SSW 6.5 mph 6.7 mph 98% 0 in
05:21 36.3 °F 37.4 °F 29.7 in SW 6 mph 9.8 mph 98% 0.01 in
05:26 36.7 °F 37.4 °F 29.7 in Calm   9.8 mph 98% 0.02 in
05:31 36.9 °F 37.4 °F 29.7 in SW 2.9 mph 8.1 mph 98% 0.02 in
05:36 36.9 °F 37.4 °F 29.7 in Calm   6.5 mph 98% 0.02 in
05:41 37 °F 37.4 °F 29.7 in SW 4.7 mph 5.4 mph 98% 0.02 in
05:46 37 °F 37.4 °F 29.7 in SSW 0.9 mph 5.4 mph 98% 0.02 in
05:51 37 °F 37.4 °F 29.7 in South 3.4 mph 4.3 mph 98% 0.02 in
05:56 37 °F 37.4 °F 29.7 in SSW 3.1 mph 6.5 mph 98% 0.02 in
06:01 37 °F 37.4 °F 29.7 in SW 2.9 mph 6.5 mph 98% 0.02 in
06:06 37 °F 37.4 °F 29.7 in South 3.6 mph 6.5 mph 98% 0.02 in
06:11 37.2 °F 37.4 °F 29.7 in SSW 3.6 mph 6.7 mph 98% 0.02 in
06:16 37.2 °F 37.4 °F 29.7 in Calm   6.7 mph 98% 0.02 in
06:21 37.2 °F 37.4 °F 29.7 in SSW 4.3 mph 6.3 mph 98% 0.02 in
06:26 37.4 °F 37.4 °F 29.7 in South 1.6 mph 6.3 mph 98% 0.01 in
06:31 37.4 °F 37.4 °F 29.7 in South 2.5 mph 6.3 mph 98% 0.01 in
06:36 37.4 °F 37.4 °F 29.7 in SSW 1.1 mph 7.6 mph 98% 0.01 in
06:41 37.6 °F 37.4 °F 29.7 in South 2.9 mph 7.6 mph 98% 0.01 in
06:46 37.6 °F 37.4 °F 29.7 in SSW 5.6 mph 5.6 mph 98% 0.01 in
06:51 37.6 °F 37.4 °F 29.7 in Calm   5.6 mph 98% 0.02 in
06:56 37.6 °F 37.4 °F 29.7 in South 4.3 mph 4.9 mph 98% 0.02 in
07:01 37.6 °F 37.4 °F 29.7 in South 4.9 mph 6.3 mph 98% 0.02 in
07:07 37.6 °F 37.4 °F 29.7 in South 2.7 mph 6.7 mph 98% 0.02 in
07:12 37.8 °F 37.4 °F 29.7 in South 4.3 mph 6.7 mph 98% 0.02 in
07:17 37.8 °F 37.4 °F 29.7 in South 4.3 mph 6.5 mph 98% 0.02 in
07:22 37.9 °F 37.4 °F 29.7 in South 4.7 mph 10.3 mph 98% 0.01 in
07:27 37.9 °F 37.4 °F 29.7 in South 5.6 mph 10.3 mph 98% 0.01 in
07:32 37.9 °F 37.4 °F 29.7 in South 4 mph 6.5 mph 98% 0.03 in
07:37 37.9 °F 37.4 °F 29.7 in South 7.8 mph 8.5 mph 98% 0.03 in
07:42 38.1 °F 37.4 °F 29.7 in South 5.4 mph 12.1 mph 98% 0.03 in
07:47 38.1 °F 37.4 °F 29.6 in SSW 6 mph 12.1 mph 98% 0.03 in
07:52 38.1 °F 37.4 °F 29.6 in South 2.9 mph 8.7 mph 98% 0.01 in
07:57 38.1 °F 37.4 °F 29.6 in SSW 2.9 mph 6.7 mph 98% 0.01 in
08:02 38.3 °F 39.2 °F 29.6 in SSW 3.1 mph 7.6 mph 98% 0.01 in
08:07 38.3 °F 39.2 °F 29.6 in South 3.1 mph 7.6 mph 98% 0.01 in
08:12 38.5 °F 39.2 °F 29.6 in South 5.4 mph 6.9 mph 98% 0.03 in
08:17 38.3 °F 39.2 °F 29.6 in SSW 3.8 mph 6.9 mph 98% 0.03 in
08:22 38.3 °F 39.2 °F 29.6 in South 4.3 mph 6.3 mph 98% 0.03 in
08:27 38.3 °F 39.2 °F 29.6 in SSE 4 mph 5.4 mph 98% 0.03 in
08:32 38.3 °F 39.2 °F 29.6 in SSW 5.4 mph 5.4 mph 98% 0.01 in
08:37 38.3 °F 39.2 °F 29.6 in SSE 3.8 mph 5.4 mph 98% 0.01 in
08:42 38.3 °F 39.2 °F 29.6 in South 3.8 mph 6.3 mph 98% 0.01 in
08:47 38.3 °F 39.2 °F 29.6 in SSW 4.3 mph 6.3 mph 98% 0.01 in
08:53 38.3 °F 39.2 °F 29.6 in South 4.3 mph 6 mph 98% 0.02 in
08:58 38.5 °F 39.2 °F 29.6 in Calm   6.5 mph 98% 0.02 in
09:03 38.5 °F 39.2 °F 29.6 in Calm   6.5 mph 98% 0.02 in
09:08 38.5 °F 39.2 °F 29.6 in SSW 4.7 mph 5.8 mph 98% 0.01 in
09:13 38.5 °F 39.2 °F 29.6 in South 3.6 mph 5.8 mph 98% 0.01 in
09:18 38.5 °F 39.2 °F 29.6 in SSW 6.5 mph 6.5 mph 98% 0.01 in
09:23 38.7 °F 39.2 °F 29.6 in SSW 3.8 mph 6.5 mph 98% 0.01 in
09:28 38.7 °F 39.2 °F 29.6 in SSW 6 mph 6.5 mph 98% 0.01 in
09:33 38.7 °F 39.2 °F 29.6 in South 3.8 mph 6.3 mph 98% 0.01 in
09:38 38.8 °F 39.2 °F 29.6 in South 5.8 mph 7.8 mph 98% 0.01 in
09:43 38.8 °F 39.2 °F 29.6 in SSE 5.4 mph 7.8 mph 98% 0.01 in
09:48 38.8 °F 39.2 °F 29.6 in South 5.6 mph 6.5 mph 98% 0.01 in
09:53 39 °F 39.2 °F 29.6 in South 2 mph 6.5 mph 98% 0 in
09:58 39 °F 39.2 °F 29.6 in Calm   5.6 mph 98% 0.01 in
10:03 39 °F 39.2 °F 29.6 in SSE 2.7 mph 7.6 mph 98% 0.01 in
10:08 39 °F 39.2 °F 29.6 in Calm   7.6 mph 98% 0.01 in
10:13 39.2 °F 39.2 °F 29.6 in South 3.8 mph 5.4 mph 98% 0.01 in
10:18 39.2 °F 39.2 °F 29.6 in Calm   5.4 mph 98% 0.01 in
10:23 39.2 °F 39.2 °F 29.6 in South 4 mph 5.6 mph 98% 0.01 in
10:28 39.2 °F 39.2 °F 29.6 in South 2 mph 6 mph 98% 0.01 in
10:33 39.2 °F 39.2 °F 29.6 in South 0.9 mph 6 mph 98% 0.01 in
10:38 39.4 °F 39.2 °F 29.6 in South 3.8 mph 7.8 mph 98% 0.01 in
10:39 39.4 °F 39.2 °F 29.6 in SSE 1.6 mph 7.8 mph 98% 0.01 in
10:44 39.4 °F 39.2 °F 29.6 in Calm   7.8 mph 98% 0.02 in
10:49 39.4 °F 39.2 °F 29.6 in South 4.3 mph 5.8 mph 98% 0.02 in
10:54 39.4 °F 39.2 °F 29.6 in SSE 1.6 mph 5.8 mph 98% 0.02 in
10:59 39.6 °F 39.2 °F 29.6 in Calm   5.6 mph 98% 0.01 in
11:04 39.6 °F 39.2 °F 29.6 in Calm   4.5 mph 98% 0.02 in
11:09 39.7 °F 39.2 °F 29.6 in South 4.7 mph 4.7 mph 98% 0.02 in
11:14 39.7 °F 39.2 °F 29.6 in SSE 2.7 mph 4.9 mph 98% 0.02 in
11:19 39.7 °F 39.2 °F 29.6 in Calm   4.9 mph 98% 0.02 in
11:24 39.7 °F 39.2 °F 29.6 in Calm   5.8 mph 98% 0.03 in
11:29 39.9 °F 39.2 °F 29.5 in SSE 2.9 mph 5.8 mph 98% 0.03 in
11:34 39.9 °F 39.2 °F 29.5 in Calm   4.5 mph 98% 0.05 in
11:39 39.9 °F 39.2 °F 29.5 in South 3.8 mph 4 mph 98% 0.05 in
11:44 40.1 °F 41 °F 29.6 in Calm   3.8 mph 98% 0.04 in
11:49 40.1 °F 41 °F 29.6 in Calm   4.3 mph 98% 0.05 in
11:54 40.3 °F 41 °F 29.6 in ESE 2.5 mph 6.5 mph 98% 0.05 in
11:59 40.3 °F 41 °F 29.5 in SSE 2.9 mph 6.5 mph 98% 0.05 in
12:04 40.5 °F 41 °F 29.5 in Calm   6.3 mph 98% 0.04 in
12:09 40.5 °F 41 °F 29.5 in Calm   6 mph 98% 0.04 in
12:14 40.5 °F 41 °F 29.5 in SSE 1.1 mph 6.3 mph 98% 0.05 in
12:19 40.5 °F 41 °F 29.5 in Calm   6.3 mph 98% 0.04 in
12:25 40.6 °F 41 °F 29.5 in Calm   3.4 mph 98% 0.04 in
12:30 40.6 °F 41 °F 29.5 in Calm   4.3 mph 98% 0.04 in
12:35 40.8 °F 41 °F 29.5 in ESE 2.7 mph 4.3 mph 98% 0.02 in
12:40 40.8 °F 41 °F 29.5 in South 4 mph 6.5 mph 98% 0.02 in
12:45 41 °F 41 °F 29.5 in Calm   6.5 mph 98% 0.03 in
12:50 41 °F 41 °F 29.5 in East 2 mph 4 mph 98% 0.02 in
12:55 41 °F 41 °F 29.5 in ESE 1.3 mph 4 mph 98% 0.02 in
13:00 41 °F 41 °F 29.5 in ESE 1.3 mph 4 mph 98% 0.02 in
13:05 41 °F 41 °F 29.5 in Calm   4 mph 98% 0.02 in
13:10 41.2 °F 41 °F 29.5 in ESE 2.9 mph 5.6 mph 98% 0.01 in
13:15 41.2 °F 41 °F 29.5 in ESE 3.1 mph 6 mph 98% 0.02 in
13:20 41.2 °F 41 °F 29.5 in SSE 3.1 mph 6 mph 98% 0.02 in
13:25 41.2 °F 41 °F 29.5 in Calm   5.8 mph 98% 0.02 in
13:30 41.4 °F 41 °F 29.5 in Calm   4.7 mph 98% 0.02 in
13:35 41.4 °F 41 °F 29.5 in Calm   4.7 mph 98% 0.02 in
13:40 41.5 °F 42.8 °F 29.5 in ESE 3.4 mph 4.7 mph 98% 0.03 in
13:45 41.5 °F 42.8 °F 29.5 in ESE 2.9 mph 3.8 mph 98% 0.02 in
13:50 41.7 °F 42.8 °F 29.5 in East 4.9 mph 4.9 mph 98% 0.02 in
13:55 41.7 °F 42.8 °F 29.5 in East 1.3 mph 4.9 mph 98% 0.02 in
13:56 41.7 °F 42.8 °F 29.5 in Calm   4.9 mph 98% 0.02 in
14:01 41.7 °F 42.8 °F 29.5 in ENE 3.4 mph 4.3 mph 98% 0.02 in
14:06 41.5 °F 42.8 °F 29.5 in Calm   4.3 mph 98% 0.02 in
14:11 41.5 °F 42.8 °F 29.5 in ENE 2 mph 3.4 mph 98% 0.02 in
14:16 41.5 °F 42.8 °F 29.5 in East 4.3 mph 4.5 mph 98% 0.02 in
14:22 41.5 °F 42.8 °F 29.5 in Calm   4.5 mph 98% 0.02 in
14:27 41.5 °F 42.8 °F 29.5 in Calm   5.6 mph 98% 0.02 in
14:32 41.5 °F 42.8 °F 29.4 in East 3.4 mph 5.6 mph 98% 0.02 in
14:37 41.7 °F 42.8 °F 29.4 in East 2.7 mph 4 mph 98% 0.04 in
14:42 41.5 °F 42.8 °F 29.4 in NE 5.4 mph 5.6 mph 98% 0.03 in
14:47 41.5 °F 42.8 °F 29.4 in ENE 2.5 mph 5.6 mph 98% 0.03 in
14:52 41.7 °F 42.8 °F 29.4 in NE 2.5 mph 5.6 mph 98% 0.03 in
14:57 41.7 °F 42.8 °F 29.4 in ESE 1.1 mph 5.6 mph 98% 0.03 in
15:02 41.7 °F 42.8 °F 29.4 in East 3.6 mph 4.7 mph 98% 0.03 in
15:07 41.9 °F 42.8 °F 29.4 in Calm   4.7 mph 98% 0.01 in
15:12 42.1 °F 42.8 °F 29.4 in East 3.4 mph 4.7 mph 98% 0.01 in
15:17 42.3 °F 42.8 °F 29.4 in Calm   4.7 mph 98% 0.01 in
15:22 42.1 °F 42.8 °F 29.4 in Calm   5.4 mph 98% 0.01 in
15:27 42.1 °F 42.8 °F 29.4 in ENE 1.3 mph 5.4 mph 98% 0.01 in
15:32 41.9 °F 42.8 °F 29.4 in ENE 3.1 mph 4.3 mph 98% 0.01 in
15:37 41.9 °F 42.8 °F 29.4 in Calm   4.3 mph 98% 0 in
15:42 41.9 °F 42.8 °F 29.4 in Calm   3.4 mph 98% 0.01 in
15:47 41.9 °F 42.8 °F 29.4 in Calm     98% 0.01 in
15:52 41.9 °F 42.8 °F 29.4 in Calm   3.8 mph 98% 0.01 in
15:58 41.7 °F 42.8 °F 29.4 in Calm   3.8 mph 98% 0.01 in
16:03 41.7 °F 42.8 °F 29.4 in East 3.1 mph 3.1 mph 98% 0.01 in
16:08 41.7 °F 42.8 °F 29.4 in Calm   3.1 mph 98% 0.01 in
16:13 41.7 °F 42.8 °F 29.4 in Calm   3.1 mph 98% 0.01 in
16:18 41.7 °F 42.8 °F 29.4 in Calm   3.4 mph 98% 0.01 in
16:23 41.5 °F 42.8 °F 29.4 in Calm   3.6 mph 98% 0.01 in
16:28 41.5 °F 42.8 °F 29.4 in Calm   3.6 mph 98% 0.01 in
16:33 41.5 °F 42.8 °F 29.4 in Calm   3.4 mph 98% 0.01 in
16:38 41.5 °F 42.8 °F 29.4 in Calm     98% 0.01 in
16:43 41.5 °F 42.8 °F 29.4 in Calm     98% 0 in
16:48 41.5 °F 42.8 °F 29.5 in Calm     98% 0 in
16:53 41.5 °F 42.8 °F 29.5 in Calm     98% 0 in
16:58 41.5 °F 42.8 °F 29.5 in Calm     98% 0 in
17:03 41.4 °F 41 °F 29.5 in Calm     98% 0.01 in
17:08 41.4 °F 41 °F 29.5 in Calm     98% 0.01 in
17:13 41.2 °F 41 °F 29.5 in Calm   3.1 mph 98% 0.01 in
17:18 41.2 °F 41 °F 29.5 in Calm   3.1 mph 98% 0.01 in
17:23 41 °F 41 °F 29.5 in Calm     98% 0.01 in
17:28 41 °F 41 °F 29.5 in Calm     98% 0.01 in
17:33 41 °F 41 °F 29.5 in Calm     98% 0.01 in
17:38 40.8 °F 41 °F 29.5 in Calm     98% 0.01 in
17:44 40.8 °F 41 °F 29.5 in Calm     98% 0.01 in
17:49 40.8 °F 41 °F 29.5 in Calm     98% 0.01 in
17:54 40.6 °F 41 °F 29.5 in Calm     98% 0.02 in
17:59 40.6 °F 41 °F 29.5 in Calm     98% 0.02 in
18:04 40.6 °F 41 °F 29.5 in Calm     98% 0.01 in
18:09 40.6 °F 41 °F 29.5 in Calm     98% 0.01 in
18:14 40.6 °F 41 °F 29.5 in Calm     98% 0.01 in
18:19 40.6 °F 41 °F 29.5 in Calm     98% 0.01 in
18:24 40.6 °F 41 °F 29.5 in Calm     98% 0.01 in
18:29 40.6 °F 41 °F 29.5 in Calm     98% 0.01 in
18:34 40.6 °F 41 °F 29.5 in Calm     98% 0.01 in
18:39 40.6 °F 41 °F 29.5 in Calm   2.5 mph 98% 0.01 in
18:44 40.6 °F 41 °F 29.5 in Calm   3.6 mph 98% 0.01 in
18:49 40.5 °F 41 °F 29.5 in Calm   4 mph 98% 0.01 in
18:54 40.5 °F 41 °F 29.5 in Calm   4 mph 98% 0.01 in
18:59 40.5 °F 41 °F 29.5 in Calm   3.4 mph 98% 0.01 in
19:04 40.5 °F 41 °F 29.5 in Calm   2 mph 98% 0.01 in
19:09 40.5 °F 41 °F 29.5 in NE 3.6 mph 3.6 mph 98% 0.01 in
19:14 40.5 °F 41 °F 29.5 in NNE 0.9 mph 3.6 mph 98% 0.01 in
19:19 40.3 °F 41 °F 29.5 in NE 2.5 mph 4.9 mph 98% 0.01 in
19:24 40.3 °F 41 °F 29.5 in NE 5.6 mph 5.6 mph 98% 0.01 in
19:29 40.3 °F 41 °F 29.5 in Calm   5.6 mph 98% 0.01 in
19:34 40.3 °F 41 °F 29.5 in NE 4.3 mph 5.6 mph 98% 0.01 in
19:39 40.3 °F 41 °F 29.5 in NE 4.3 mph 5.8 mph 98% 0.01 in
19:44 40.1 °F 41 °F 29.5 in North 6.3 mph 6.3 mph 98% 0.01 in
19:49 40.1 °F 41 °F 29.5 in Calm   6.3 mph 98% 0 in
19:54 40.1 °F 41 °F 29.5 in NNE 0.9 mph 6 mph 98% 0 in
20:00 40.1 °F 41 °F 29.5 in Calm   6 mph 98% 0 in
20:05 39.9 °F 39.2 °F 29.5 in Calm   4 mph 98% 0 in
20:10 39.9 °F 39.2 °F 29.5 in Calm   5.6 mph 98% 0 in
20:15 39.9 °F 39.2 °F 29.6 in NNE 1.6 mph 5.6 mph 98% 0 in
20:20 39.9 °F 39.2 °F 29.6 in NE 1.3 mph 6.3 mph 98% 0 in
20:25 39.7 °F 39.2 °F 29.6 in NNE 4.9 mph 7.4 mph 98% 0 in
20:30 39.7 °F 39.2 °F 29.6 in NNE 4.9 mph 7.4 mph 98% 0 in
20:35 39.7 °F 39.2 °F 29.6 in NE 5.4 mph 7.4 mph 98% 0 in
20:40 39.7 °F 39.2 °F 29.6 in North 4.9 mph 6.5 mph 98% 0 in
20:45 39.6 °F 39.2 °F 29.6 in NE 3.1 mph 7.2 mph 98% 0 in
20:51 39.6 °F 39.2 °F 29.6 in NNE 3.1 mph 7.2 mph 98% 0 in
20:56 39.4 °F 39.2 °F 29.6 in NNE 5.6 mph 6.5 mph 98% 0 in
21:01 39.4 °F 39.2 °F 29.6 in Calm   6.3 mph 98% 0 in
21:06 39.4 °F 39.2 °F 29.6 in NE 5.4 mph 6.3 mph 98% 0 in
21:11 39.2 °F 39.2 °F 29.6 in NE 1.6 mph 6.3 mph 98% 0 in
21:16 39.2 °F 39.2 °F 29.6 in NNW 5.8 mph 6.5 mph 98% 0 in
21:21 39.2 °F 39.2 °F 29.6 in ENE 3.4 mph 6.5 mph 98% 0 in
21:26 39 °F 39.2 °F 29.6 in NNE 2.7 mph 6 mph 98% 0 in
21:31 39 °F 39.2 °F 29.6 in NNE 2.7 mph 5.8 mph 98% 0 in
21:36 38.8 °F 39.2 °F 29.6 in NNE 2.9 mph 5.8 mph 98% 0 in
21:41 38.8 °F 39.2 °F 29.6 in North 1.3 mph 5.6 mph 98% 0 in
21:46 38.8 °F 39.2 °F 29.6 in North 4.3 mph 5.6 mph 98% 0 in
21:51 38.8 °F 39.2 °F 29.6 in NNE 5.4 mph 5.8 mph 98% 0 in
21:56 38.8 °F 39.2 °F 29.6 in North 3.8 mph 5.8 mph 98% 0 in
22:01 38.7 °F 39.2 °F 29.6 in North 4.9 mph 6 mph 98% 0 in
22:06 38.7 °F 39.2 °F 29.6 in NE 4 mph 7.6 mph 98% 0 in
22:11 38.8 °F 39.2 °F 29.6 in North 4.3 mph 7.6 mph 98% 0 in
22:17 38.7 °F 39.2 °F 29.6 in NNE 4.9 mph 7.4 mph 98% 0 in
22:22 38.5 °F 39.2 °F 29.6 in North 6 mph 8.1 mph 98% 0 in
22:27 38.3 °F 39.2 °F 29.6 in North 4 mph 10.5 mph 98% 0 in
22:32 38.3 °F 39.2 °F 29.6 in North 4 mph 10.5 mph 98% 0 in
22:37 38.1 °F 37.4 °F 29.6 in North 7.6 mph 7.8 mph 98% 0 in
22:42 38.1 °F 37.4 °F 29.6 in NE 6.5 mph 8.5 mph 98% 0 in
22:47 38.1 °F 37.4 °F 29.7 in North 8.5 mph 8.5 mph 98% 0 in
22:52 38.1 °F 37.4 °F 29.7 in NE 7.4 mph 8.5 mph 98% 0 in
22:57 38.1 °F 37.4 °F 29.7 in North 7.2 mph 8.5 mph 98% 0 in
23:02 37.9 °F 37.4 °F 29.6 in NNE 4.3 mph 7.4 mph 98% 0 in
23:07 37.9 °F 37.4 °F 29.6 in NNW 3.6 mph 7.2 mph 98% 0 in
23:12 37.9 °F 37.4 °F 29.6 in NNW 3.6 mph 4.7 mph 98% 0 in
23:17 37.9 °F 37.4 °F 29.7 in Calm   3.6 mph 98% 0 in
23:22 37.9 °F 37.4 °F 29.7 in North 0.9 mph 3.6 mph 98% 0 in
23:28 37.9 °F 37.4 °F 29.7 in Calm   0.9 mph 98% 0 in
23:33 37.9 °F 37.4 °F 29.7 in Calm   0.9 mph 98% 0 in
23:38 37.9 °F 37.4 °F 29.7 in Calm     98% 0 in
23:43 37.9 °F 37.4 °F 29.7 in Calm     98% 0 in
23:48 37.9 °F 37.4 °F 29.7 in Calm     98% 0 in
23:53 37.8 °F 37.4 °F 29.7 in Calm     98% 0 in
23:58 37.9 °F 37.4 °F 29.7 in Calm     98% 0 in
Données Historique de Météo Turbie

Mise a jour : 25/05/2018 06:44:27
Généré par Cumulus 1.9.4 (1099)